sensor_id;sensor_type;location;lat;lon;timestamp;temperature;humidity
9776;DHT22;4927;52.472;13.108;2024-01-10T00:00:29;-10.20;99.90
9776;DHT22;4927;52.472;13.108;2024-01-10T00:01:32;-10.20;99.90
9776;DHT22;4927;52.472;13.108;2024-01-10T00:02:35;-10.20;99.90
9776;DHT22;4927;52.472;13.108;2024-01-10T00:03:36;-10.20;99.90
9776;DHT22;4927;52.472;13.108;2024-01-10T00:04:39;-10.20;99.90
9776;DHT22;4927;52.472;13.108;2024-01-10T00:05:41;-10.20;99.90
9776;DHT22;4927;52.472;13.108;2024-01-10T00:06:43;-10.20;99.90
9776;DHT22;4927;52.472;13.108;2024-01-10T00:07:45;-10.20;99.90
9776;DHT22;4927;52.472;13.108;2024-01-10T00:08:47;-10.20;99.90
9776;DHT22;4927;52.472;13.108;2024-01-10T00:09:49;-10.20;99.90
9776;DHT22;4927;52.472;13.108;2024-01-10T00:10:52;-10.20;99.90
9776;DHT22;4927;52.472;13.108;2024-01-10T00:11:53;-10.20;99.90
9776;DHT22;4927;52.472;13.108;2024-01-10T00:12:55;-10.20;99.90
9776;DHT22;4927;52.472;13.108;2024-01-10T00:13:57;-10.20;99.90
9776;DHT22;4927;52.472;13.108;2024-01-10T00:15:00;-10.20;99.90
9776;DHT22;4927;52.472;13.108;2024-01-10T00:16:01;-10.20;99.90
9776;DHT22;4927;52.472;13.108;2024-01-10T00:17:03;-10.20;99.90
9776;DHT22;4927;52.472;13.108;2024-01-10T00:18:06;-10.20;99.90
9776;DHT22;4927;52.472;13.108;2024-01-10T00:19:07;-10.20;99.90
9776;DHT22;4927;52.472;13.108;2024-01-10T00:20:10;-10.20;99.90
9776;DHT22;4927;52.472;13.108;2024-01-10T00:21:13;-10.20;99.90
9776;DHT22;4927;52.472;13.108;2024-01-10T00:22:14;-10.20;99.90
9776;DHT22;4927;52.472;13.108;2024-01-10T00:23:16;-10.20;99.90
9776;DHT22;4927;52.472;13.108;2024-01-10T00:24:18;-10.20;99.90
9776;DHT22;4927;52.472;13.108;2024-01-10T00:25:20;-10.10;99.90
9776;DHT22;4927;52.472;13.108;2024-01-10T00:26:22;-10.10;99.90
9776;DHT22;4927;52.472;13.108;2024-01-10T00:27:23;-10.10;99.90
9776;DHT22;4927;52.472;13.108;2024-01-10T00:28:25;-10.10;99.90
9776;DHT22;4927;52.472;13.108;2024-01-10T00:29:28;-10.10;99.90
9776;DHT22;4927;52.472;13.108;2024-01-10T00:30:30;-10.10;99.90
9776;DHT22;4927;52.472;13.108;2024-01-10T00:31:32;-10.20;99.90
9776;DHT22;4927;52.472;13.108;2024-01-10T00:32:34;-10.20;99.90
9776;DHT22;4927;52.472;13.108;2024-01-10T00:33:36;-10.20;99.90
9776;DHT22;4927;52.472;13.108;2024-01-10T00:34:37;-10.20;99.90
9776;DHT22;4927;52.472;13.108;2024-01-10T00:35:40;-10.20;99.90
9776;DHT22;4927;52.472;13.108;2024-01-10T00:36:42;-10.20;99.90
9776;DHT22;4927;52.472;13.108;2024-01-10T00:37:45;-10.20;99.90
9776;DHT22;4927;52.472;13.108;2024-01-10T00:38:47;-10.30;99.90
9776;DHT22;4927;52.472;13.108;2024-01-10T00:39:49;-10.30;99.90
9776;DHT22;4927;52.472;13.108;2024-01-10T00:40:50;-10.30;99.90
9776;DHT22;4927;52.472;13.108;2024-01-10T00:41:52;-10.30;99.90
9776;DHT22;4927;52.472;13.108;2024-01-10T00:42:54;-10.30;99.90
9776;DHT22;4927;52.472;13.108;2024-01-10T00:43:56;-10.30;99.90
9776;DHT22;4927;52.472;13.108;2024-01-10T00:44:58;-10.20;99.90
9776;DHT22;4927;52.472;13.108;2024-01-10T00:45:59;-10.20;99.90
9776;DHT22;4927;52.472;13.108;2024-01-10T00:47:01;-10.20;99.90
9776;DHT22;4927;52.472;13.108;2024-01-10T00:48:04;-10.20;99.90
9776;DHT22;4927;52.472;13.108;2024-01-10T00:49:07;-10.20;99.90
9776;DHT22;4927;52.472;13.108;2024-01-10T00:50:09;-10.20;99.90
9776;DHT22;4927;52.472;13.108;2024-01-10T00:51:11;-10.20;99.90
9776;DHT22;4927;52.472;13.108;2024-01-10T00:52:13;-10.20;99.90
9776;DHT22;4927;52.472;13.108;2024-01-10T00:53:16;-10.10;99.90
9776;DHT22;4927;52.472;13.108;2024-01-10T00:54:18;-10.10;99.90
9776;DHT22;4927;52.472;13.108;2024-01-10T00:55:20;-10.10;99.90
9776;DHT22;4927;52.472;13.108;2024-01-10T00:56:22;-10.10;99.90
9776;DHT22;4927;52.472;13.108;2024-01-10T00:57:24;-10.10;99.90
9776;DHT22;4927;52.472;13.108;2024-01-10T00:58:26;-10.10;99.90
9776;DHT22;4927;52.472;13.108;2024-01-10T00:59:29;-10.10;99.90
9776;DHT22;4927;52.472;13.108;2024-01-10T01:00:31;-10.10;99.90
9776;DHT22;4927;52.472;13.108;2024-01-10T01:01:32;-10.10;99.90
9776;DHT22;4927;52.472;13.108;2024-01-10T01:02:34;-10.10;99.90
9776;DHT22;4927;52.472;13.108;2024-01-10T01:03:37;-10.10;99.90
9776;DHT22;4927;52.472;13.108;2024-01-10T01:04:39;-10.10;99.90
9776;DHT22;4927;52.472;13.108;2024-01-10T01:05:40;-10.10;99.90
9776;DHT22;4927;52.472;13.108;2024-01-10T01:06:42;-10.10;99.90
9776;DHT22;4927;52.472;13.108;2024-01-10T01:07:45;-10.10;99.90
9776;DHT22;4927;52.472;13.108;2024-01-10T01:08:47;-10.10;99.90
9776;DHT22;4927;52.472;13.108;2024-01-10T01:09:48;-10.20;99.90
9776;DHT22;4927;52.472;13.108;2024-01-10T01:10:50;-10.20;99.90
9776;DHT22;4927;52.472;13.108;2024-01-10T01:11:52;-10.20;99.90
9776;DHT22;4927;52.472;13.108;2024-01-10T01:12:54;-10.20;99.90
9776;DHT22;4927;52.472;13.108;2024-01-10T01:13:55;-10.20;99.90
9776;DHT22;4927;52.472;13.108;2024-01-10T01:14:58;-10.20;99.90
9776;DHT22;4927;52.472;13.108;2024-01-10T01:16:01;-10.20;99.90
9776;DHT22;4927;52.472;13.108;2024-01-10T01:17:03;-10.20;99.90
9776;DHT22;4927;52.472;13.108;2024-01-10T01:18:05;-10.20;99.90
9776;DHT22;4927;52.472;13.108;2024-01-10T01:19:07;-10.20;99.90
9776;DHT22;4927;52.472;13.108;2024-01-10T01:20:09;-10.20;99.90
9776;DHT22;4927;52.472;13.108;2024-01-10T01:21:11;-10.20;99.90
9776;DHT22;4927;52.472;13.108;2024-01-10T01:22:12;-10.20;99.90
9776;DHT22;4927;52.472;13.108;2024-01-10T01:23:14;-10.20;99.90
9776;DHT22;4927;52.472;13.108;2024-01-10T01:24:17;-10.20;99.90
9776;DHT22;4927;52.472;13.108;2024-01-10T01:25:19;-10.20;99.90
9776;DHT22;4927;52.472;13.108;2024-01-10T01:26:20;-10.20;99.90
9776;DHT22;4927;52.472;13.108;2024-01-10T01:27:23;-10.20;99.90
9776;DHT22;4927;52.472;13.108;2024-01-10T01:28:25;-10.20;99.90
9776;DHT22;4927;52.472;13.108;2024-01-10T01:29:26;-10.20;99.90
9776;DHT22;4927;52.472;13.108;2024-01-10T01:30:29;-10.20;99.90
9776;DHT22;4927;52.472;13.108;2024-01-10T01:31:31;-10.20;99.90
9776;DHT22;4927;52.472;13.108;2024-01-10T01:32:33;-10.20;99.90
9776;DHT22;4927;52.472;13.108;2024-01-10T01:33:35;-10.20;99.90
9776;DHT22;4927;52.472;13.108;2024-01-10T01:34:37;-10.20;99.90
9776;DHT22;4927;52.472;13.108;2024-01-10T01:35:40;-10.20;99.90
9776;DHT22;4927;52.472;13.108;2024-01-10T01:36:42;-10.20;99.90
9776;DHT22;4927;52.472;13.108;2024-01-10T01:37:44;-10.20;99.90
9776;DHT22;4927;52.472;13.108;2024-01-10T01:38:46;-10.20;99.90
9776;DHT22;4927;52.472;13.108;2024-01-10T01:39:48;-10.30;99.90
9776;DHT22;4927;52.472;13.108;2024-01-10T01:40:50;-10.30;99.90
9776;DHT22;4927;52.472;13.108;2024-01-10T01:41:52;-10.30;99.90
9776;DHT22;4927;52.472;13.108;2024-01-10T01:42:53;-10.30;99.90
9776;DHT22;4927;52.472;13.108;2024-01-10T01:43:56;-10.30;99.90
9776;DHT22;4927;52.472;13.108;2024-01-10T01:44:58;-10.30;99.90
9776;DHT22;4927;52.472;13.108;2024-01-10T01:46:00;-10.30;99.90
9776;DHT22;4927;52.472;13.108;2024-01-10T01:47:01;-10.30;99.90
9776;DHT22;4927;52.472;13.108;2024-01-10T01:48:04;-10.30;99.90
9776;DHT22;4927;52.472;13.108;2024-01-10T01:49:06;-10.30;99.90
9776;DHT22;4927;52.472;13.108;2024-01-10T01:50:10;-10.40;99.90
9776;DHT22;4927;52.472;13.108;2024-01-10T01:51:11;-10.40;99.90
9776;DHT22;4927;52.472;13.108;2024-01-10T01:52:13;-10.40;99.90
9776;DHT22;4927;52.472;13.108;2024-01-10T01:53:15;-10.40;99.90
9776;DHT22;4927;52.472;13.108;2024-01-10T01:54:16;-10.40;99.90
9776;DHT22;4927;52.472;13.108;2024-01-10T01:55:19;-10.40;99.90
9776;DHT22;4927;52.472;13.108;2024-01-10T01:56:21;-10.40;99.90
9776;DHT22;4927;52.472;13.108;2024-01-10T01:57:23;-10.40;99.90
9776;DHT22;4927;52.472;13.108;2024-01-10T01:58:25;-10.40;99.90
9776;DHT22;4927;52.472;13.108;2024-01-10T01:59:26;-10.40;99.90
9776;DHT22;4927;52.472;13.108;2024-01-10T02:00:28;-10.40;99.90
9776;DHT22;4927;52.472;13.108;2024-01-10T02:01:30;-10.40;99.90
9776;DHT22;4927;52.472;13.108;2024-01-10T02:02:32;-10.40;99.90
9776;DHT22;4927;52.472;13.108;2024-01-10T02:03:34;-10.40;99.90
9776;DHT22;4927;52.472;13.108;2024-01-10T02:04:36;-10.40;99.90
9776;DHT22;4927;52.472;13.108;2024-01-10T02:05:38;-10.50;99.90
9776;DHT22;4927;52.472;13.108;2024-01-10T02:06:41;-10.50;99.90
9776;DHT22;4927;52.472;13.108;2024-01-10T02:07:43;-10.50;99.90
9776;DHT22;4927;52.472;13.108;2024-01-10T02:08:45;-10.50;99.90
9776;DHT22;4927;52.472;13.108;2024-01-10T02:09:48;-10.50;99.90
9776;DHT22;4927;52.472;13.108;2024-01-10T02:10:50;-10.50;99.90
9776;DHT22;4927;52.472;13.108;2024-01-10T02:11:51;-10.50;99.90
9776;DHT22;4927;52.472;13.108;2024-01-10T02:12:53;-10.50;99.90
9776;DHT22;4927;52.472;13.108;2024-01-10T02:13:55;-10.50;99.90
9776;DHT22;4927;52.472;13.108;2024-01-10T02:14:57;-10.50;99.90
9776;DHT22;4927;52.472;13.108;2024-01-10T02:15:59;-10.50;99.90
9776;DHT22;4927;52.472;13.108;2024-01-10T02:17:01;-10.50;99.90
9776;DHT22;4927;52.472;13.108;2024-01-10T02:18:03;-10.50;99.90
9776;DHT22;4927;52.472;13.108;2024-01-10T02:19:17;-10.50;99.90
9776;DHT22;4927;52.472;13.108;2024-01-10T02:20:18;-10.50;99.90
9776;DHT22;4927;52.472;13.108;2024-01-10T02:21:21;-10.60;99.90
9776;DHT22;4927;52.472;13.108;2024-01-10T02:22:24;-10.60;99.90
9776;DHT22;4927;52.472;13.108;2024-01-10T02:23:25;-10.60;99.90
9776;DHT22;4927;52.472;13.108;2024-01-10T02:24:27;-10.60;99.90
9776;DHT22;4927;52.472;13.108;2024-01-10T02:25:29;-10.60;99.90
9776;DHT22;4927;52.472;13.108;2024-01-10T02:26:31;-10.60;99.90
9776;DHT22;4927;52.472;13.108;2024-01-10T02:27:34;-10.60;99.90
9776;DHT22;4927;52.472;13.108;2024-01-10T02:28:35;-10.60;99.90
9776;DHT22;4927;52.472;13.108;2024-01-10T02:29:36;-10.60;99.90
9776;DHT22;4927;52.472;13.108;2024-01-10T02:30:38;-10.60;99.90
9776;DHT22;4927;52.472;13.108;2024-01-10T02:31:40;-10.60;99.90
9776;DHT22;4927;52.472;13.108;2024-01-10T02:32:43;-10.60;99.90
9776;DHT22;4927;52.472;13.108;2024-01-10T02:33:44;-10.60;99.90
9776;DHT22;4927;52.472;13.108;2024-01-10T02:34:47;-10.60;99.90
9776;DHT22;4927;52.472;13.108;2024-01-10T02:35:50;-10.60;99.90
9776;DHT22;4927;52.472;13.108;2024-01-10T02:36:51;-10.60;99.90
9776;DHT22;4927;52.472;13.108;2024-01-10T02:37:54;-10.60;99.90
9776;DHT22;4927;52.472;13.108;2024-01-10T02:38:56;-10.60;99.90
9776;DHT22;4927;52.472;13.108;2024-01-10T02:39:57;-10.50;99.90
9776;DHT22;4927;52.472;13.108;2024-01-10T02:40:59;-10.50;99.90
9776;DHT22;4927;52.472;13.108;2024-01-10T02:42:01;-10.60;99.90
9776;DHT22;4927;52.472;13.108;2024-01-10T02:43:03;-10.60;99.90
9776;DHT22;4927;52.472;13.108;2024-01-10T02:44:05;-10.60;99.90
9776;DHT22;4927;52.472;13.108;2024-01-10T02:45:07;-10.50;99.90
9776;DHT22;4927;52.472;13.108;2024-01-10T02:46:09;-10.60;99.90
9776;DHT22;4927;52.472;13.108;2024-01-10T02:47:11;-10.50;99.90
9776;DHT22;4927;52.472;13.108;2024-01-10T02:48:13;-10.50;99.90
9776;DHT22;4927;52.472;13.108;2024-01-10T02:49:14;-10.50;99.90
9776;DHT22;4927;52.472;13.108;2024-01-10T02:50:16;-10.60;99.90
9776;DHT22;4927;52.472;13.108;2024-01-10T02:51:18;-10.60;99.90
9776;DHT22;4927;52.472;13.108;2024-01-10T02:52:20;-10.60;99.90
9776;DHT22;4927;52.472;13.108;2024-01-10T02:53:22;-10.60;99.90
9776;DHT22;4927;52.472;13.108;2024-01-10T02:54:23;-10.50;99.90
9776;DHT22;4927;52.472;13.108;2024-01-10T02:55:25;-10.50;99.90
9776;DHT22;4927;52.472;13.108;2024-01-10T02:56:28;-10.50;99.90
9776;DHT22;4927;52.472;13.108;2024-01-10T02:57:30;-10.50;99.90
9776;DHT22;4927;52.472;13.108;2024-01-10T02:58:31;-10.50;99.90
9776;DHT22;4927;52.472;13.108;2024-01-10T02:59:33;-10.50;99.90
9776;DHT22;4927;52.472;13.108;2024-01-10T03:00:35;-10.50;99.90
9776;DHT22;4927;52.472;13.108;2024-01-10T03:01:37;-10.50;99.90
9776;DHT22;4927;52.472;13.108;2024-01-10T03:02:38;-10.50;99.90
9776;DHT22;4927;52.472;13.108;2024-01-10T03:03:41;-10.50;99.90
9776;DHT22;4927;52.472;13.108;2024-01-10T03:04:44;-10.50;99.90
9776;DHT22;4927;52.472;13.108;2024-01-10T03:05:46;-10.50;99.90
9776;DHT22;4927;52.472;13.108;2024-01-10T03:06:48;-10.50;99.90
9776;DHT22;4927;52.472;13.108;2024-01-10T03:07:49;-10.50;99.90
9776;DHT22;4927;52.472;13.108;2024-01-10T03:08:51;-10.50;99.90
9776;DHT22;4927;52.472;13.108;2024-01-10T03:09:54;-10.50;99.90
9776;DHT22;4927;52.472;13.108;2024-01-10T03:10:55;-10.60;99.90
9776;DHT22;4927;52.472;13.108;2024-01-10T03:11:58;-10.60;99.90
9776;DHT22;4927;52.472;13.108;2024-01-10T03:13:00;-10.60;99.90
9776;DHT22;4927;52.472;13.108;2024-01-10T03:14:03;-10.60;99.90
9776;DHT22;4927;52.472;13.108;2024-01-10T03:15:05;-10.60;99.90
9776;DHT22;4927;52.472;13.108;2024-01-10T03:16:07;-10.60;99.90
9776;DHT22;4927;52.472;13.108;2024-01-10T03:17:09;-10.60;99.90
9776;DHT22;4927;52.472;13.108;2024-01-10T03:18:11;-10.50;99.90
9776;DHT22;4927;52.472;13.108;2024-01-10T03:19:13;-10.50;99.90
9776;DHT22;4927;52.472;13.108;2024-01-10T03:20:15;-10.50;99.90
9776;DHT22;4927;52.472;13.108;2024-01-10T03:21:17;-10.50;99.90
9776;DHT22;4927;52.472;13.108;2024-01-10T03:22:18;-10.50;99.90
9776;DHT22;4927;52.472;13.108;2024-01-10T03:23:20;-10.50;99.90
9776;DHT22;4927;52.472;13.108;2024-01-10T03:24:22;-10.50;99.90
9776;DHT22;4927;52.472;13.108;2024-01-10T03:25:24;-10.50;99.90
9776;DHT22;4927;52.472;13.108;2024-01-10T03:26:26;-10.50;99.90
9776;DHT22;4927;52.472;13.108;2024-01-10T03:27:27;-10.50;99.90
9776;DHT22;4927;52.472;13.108;2024-01-10T03:28:29;-10.50;99.90
9776;DHT22;4927;52.472;13.108;2024-01-10T03:29:32;-10.50;99.90
9776;DHT22;4927;52.472;13.108;2024-01-10T03:30:34;-10.50;99.90
9776;DHT22;4927;52.472;13.108;2024-01-10T03:31:36;-10.60;99.90
9776;DHT22;4927;52.472;13.108;2024-01-10T03:32:37;-10.60;99.90
9776;DHT22;4927;52.472;13.108;2024-01-10T03:33:39;-10.60;99.90
9776;DHT22;4927;52.472;13.108;2024-01-10T03:34:42;-10.60;99.90
9776;DHT22;4927;52.472;13.108;2024-01-10T03:35:43;-10.60;99.90
9776;DHT22;4927;52.472;13.108;2024-01-10T03:36:45;-10.60;99.90
9776;DHT22;4927;52.472;13.108;2024-01-10T03:37:47;-10.60;99.90
9776;DHT22;4927;52.472;13.108;2024-01-10T03:38:50;-10.60;99.90
9776;DHT22;4927;52.472;13.108;2024-01-10T03:39:51;-10.60;99.90
9776;DHT22;4927;52.472;13.108;2024-01-10T03:40:53;-10.60;99.90
9776;DHT22;4927;52.472;13.108;2024-01-10T03:41:55;-10.60;99.90
9776;DHT22;4927;52.472;13.108;2024-01-10T03:42:57;-10.60;99.90
9776;DHT22;4927;52.472;13.108;2024-01-10T03:43:59;-10.60;99.90
9776;DHT22;4927;52.472;13.108;2024-01-10T03:45:00;-10.60;99.90
9776;DHT22;4927;52.472;13.108;2024-01-10T03:46:02;-10.70;99.90
9776;DHT22;4927;52.472;13.108;2024-01-10T03:47:05;-10.60;99.90
9776;DHT22;4927;52.472;13.108;2024-01-10T03:48:08;-10.60;99.90
9776;DHT22;4927;52.472;13.108;2024-01-10T03:49:10;-10.60;99.90
9776;DHT22;4927;52.472;13.108;2024-01-10T03:50:12;-10.60;99.90
9776;DHT22;4927;52.472;13.108;2024-01-10T03:51:15;-10.60;99.90
9776;DHT22;4927;52.472;13.108;2024-01-10T03:52:17;-10.60;99.90
9776;DHT22;4927;52.472;13.108;2024-01-10T03:53:19;-10.60;99.90
9776;DHT22;4927;52.472;13.108;2024-01-10T03:54:21;-10.60;99.90
9776;DHT22;4927;52.472;13.108;2024-01-10T03:55:23;-10.60;99.90
9776;DHT22;4927;52.472;13.108;2024-01-10T03:56:25;-10.60;99.90
9776;DHT22;4927;52.472;13.108;2024-01-10T03:57:27;-10.60;99.90
9776;DHT22;4927;52.472;13.108;2024-01-10T03:58:29;-10.60;99.90
9776;DHT22;4927;52.472;13.108;2024-01-10T03:59:31;-10.60;99.90
9776;DHT22;4927;52.472;13.108;2024-01-10T04:00:33;-10.60;99.90
9776;DHT22;4927;52.472;13.108;2024-01-10T04:01:34;-10.60;99.90
9776;DHT22;4927;52.472;13.108;2024-01-10T04:02:37;-10.60;99.90
9776;DHT22;4927;52.472;13.108;2024-01-10T04:03:40;-10.60;99.90
9776;DHT22;4927;52.472;13.108;2024-01-10T04:04:43;-10.60;99.90
9776;DHT22;4927;52.472;13.108;2024-01-10T04:05:45;-10.60;99.90
9776;DHT22;4927;52.472;13.108;2024-01-10T04:06:47;-10.60;99.90
9776;DHT22;4927;52.472;13.108;2024-01-10T04:07:48;-10.60;99.90
9776;DHT22;4927;52.472;13.108;2024-01-10T04:08:51;-10.60;99.90
9776;DHT22;4927;52.472;13.108;2024-01-10T04:09:53;-10.60;99.90
9776;DHT22;4927;52.472;13.108;2024-01-10T04:10:55;-10.60;99.90
9776;DHT22;4927;52.472;13.108;2024-01-10T04:11:57;-10.60;99.90
9776;DHT22;4927;52.472;13.108;2024-01-10T04:12:59;-10.60;99.90
9776;DHT22;4927;52.472;13.108;2024-01-10T04:14:01;-10.60;99.90
9776;DHT22;4927;52.472;13.108;2024-01-10T04:15:03;-10.60;99.90
9776;DHT22;4927;52.472;13.108;2024-01-10T04:16:06;-10.60;99.90
9776;DHT22;4927;52.472;13.108;2024-01-10T04:17:08;-10.60;99.90
9776;DHT22;4927;52.472;13.108;2024-01-10T04:18:10;-10.50;99.90
9776;DHT22;4927;52.472;13.108;2024-01-10T04:19:12;-10.50;99.90
9776;DHT22;4927;52.472;13.108;2024-01-10T04:20:15;-10.50;99.90
9776;DHT22;4927;52.472;13.108;2024-01-10T04:21:17;-10.50;99.90
9776;DHT22;4927;52.472;13.108;2024-01-10T04:22:19;-10.50;99.90
9776;DHT22;4927;52.472;13.108;2024-01-10T04:23:20;-10.50;99.90
9776;DHT22;4927;52.472;13.108;2024-01-10T04:24:22;-10.50;99.90
9776;DHT22;4927;52.472;13.108;2024-01-10T04:25:25;-10.50;99.90
9776;DHT22;4927;52.472;13.108;2024-01-10T04:26:28;-10.50;99.90
9776;DHT22;4927;52.472;13.108;2024-01-10T04:27:31;-10.50;99.90
9776;DHT22;4927;52.472;13.108;2024-01-10T04:28:33;-10.60;99.90
9776;DHT22;4927;52.472;13.108;2024-01-10T04:29:35;-10.50;99.90
9776;DHT22;4927;52.472;13.108;2024-01-10T04:30:40;-10.60;99.90
9776;DHT22;4927;52.472;13.108;2024-01-10T04:31:45;-10.50;99.90
9776;DHT22;4927;52.472;13.108;2024-01-10T04:32:49;-10.60;99.90
9776;DHT22;4927;52.472;13.108;2024-01-10T04:33:53;-10.60;99.90
9776;DHT22;4927;52.472;13.108;2024-01-10T04:34:56;-10.60;99.90
9776;DHT22;4927;52.472;13.108;2024-01-10T04:35:58;-10.60;99.90
9776;DHT22;4927;52.472;13.108;2024-01-10T04:36:59;-10.60;99.90
9776;DHT22;4927;52.472;13.108;2024-01-10T04:38:03;-10.60;99.90
9776;DHT22;4927;52.472;13.108;2024-01-10T04:39:07;-10.60;99.90
9776;DHT22;4927;52.472;13.108;2024-01-10T04:40:10;-10.60;99.90
9776;DHT22;4927;52.472;13.108;2024-01-10T04:41:14;-10.60;99.90
9776;DHT22;4927;52.472;13.108;2024-01-10T04:42:18;-10.60;99.90
9776;DHT22;4927;52.472;13.108;2024-01-10T04:43:21;-10.60;99.90
9776;DHT22;4927;52.472;13.108;2024-01-10T04:44:23;-10.60;99.90
9776;DHT22;4927;52.472;13.108;2024-01-10T04:45:26;-10.60;99.90
9776;DHT22;4927;52.472;13.108;2024-01-10T04:46:30;-10.60;99.90
9776;DHT22;4927;52.472;13.108;2024-01-10T04:47:34;-10.60;99.90
9776;DHT22;4927;52.472;13.108;2024-01-10T04:48:37;-10.60;99.90
9776;DHT22;4927;52.472;13.108;2024-01-10T04:49:40;-10.60;99.90
9776;DHT22;4927;52.472;13.108;2024-01-10T04:50:42;-10.60;99.90
9776;DHT22;4927;52.472;13.108;2024-01-10T04:51:46;-10.60;99.90
9776;DHT22;4927;52.472;13.108;2024-01-10T04:52:48;-10.60;99.90
9776;DHT22;4927;52.472;13.108;2024-01-10T04:53:51;-10.70;99.90
9776;DHT22;4927;52.472;13.108;2024-01-10T04:54:53;-10.70;99.90
9776;DHT22;4927;52.472;13.108;2024-01-10T04:55:56;-10.70;99.90
9776;DHT22;4927;52.472;13.108;2024-01-10T04:56:58;-10.70;99.90
9776;DHT22;4927;52.472;13.108;2024-01-10T04:58:00;-10.70;99.90
9776;DHT22;4927;52.472;13.108;2024-01-10T04:59:05;-10.70;99.90
9776;DHT22;4927;52.472;13.108;2024-01-10T05:00:07;-10.70;99.90
9776;DHT22;4927;52.472;13.108;2024-01-10T05:01:09;-10.70;99.90
9776;DHT22;4927;52.472;13.108;2024-01-10T05:02:11;-10.70;99.90
9776;DHT22;4927;52.472;13.108;2024-01-10T05:03:13;-10.70;99.90
9776;DHT22;4927;52.472;13.108;2024-01-10T05:04:15;-10.70;99.90
9776;DHT22;4927;52.472;13.108;2024-01-10T05:05:18;-10.80;99.90
9776;DHT22;4927;52.472;13.108;2024-01-10T05:06:22;-10.80;99.90
9776;DHT22;4927;52.472;13.108;2024-01-10T05:07:24;-10.80;99.90
9776;DHT22;4927;52.472;13.108;2024-01-10T05:08:26;-10.80;99.90
9776;DHT22;4927;52.472;13.108;2024-01-10T05:09:28;-10.90;99.90
9776;DHT22;4927;52.472;13.108;2024-01-10T05:10:31;-10.90;99.90
9776;DHT22;4927;52.472;13.108;2024-01-10T05:11:33;-10.90;99.90
9776;DHT22;4927;52.472;13.108;2024-01-10T05:12:35;-10.90;99.90
9776;DHT22;4927;52.472;13.108;2024-01-10T05:13:38;-10.90;99.90
9776;DHT22;4927;52.472;13.108;2024-01-10T05:14:41;-10.90;99.90
9776;DHT22;4927;52.472;13.108;2024-01-10T05:15:47;-10.90;99.90
9776;DHT22;4927;52.472;13.108;2024-01-10T05:16:49;-10.90;99.90
9776;DHT22;4927;52.472;13.108;2024-01-10T05:17:54;-10.90;99.90
9776;DHT22;4927;52.472;13.108;2024-01-10T05:18:55;-10.90;99.90
9776;DHT22;4927;52.472;13.108;2024-01-10T05:20:00;-11.00;99.90
9776;DHT22;4927;52.472;13.108;2024-01-10T05:21:04;-11.00;99.90
9776;DHT22;4927;52.472;13.108;2024-01-10T05:22:06;-11.00;99.90
9776;DHT22;4927;52.472;13.108;2024-01-10T05:23:08;-11.00;99.90
9776;DHT22;4927;52.472;13.108;2024-01-10T05:24:10;-11.00;99.90
9776;DHT22;4927;52.472;13.108;2024-01-10T05:25:12;-11.00;99.90
9776;DHT22;4927;52.472;13.108;2024-01-10T05:26:15;-11.00;99.90
9776;DHT22;4927;52.472;13.108;2024-01-10T05:27:17;-11.00;99.90
9776;DHT22;4927;52.472;13.108;2024-01-10T05:28:19;-11.00;99.90
9776;DHT22;4927;52.472;13.108;2024-01-10T05:29:20;-11.00;99.90
9776;DHT22;4927;52.472;13.108;2024-01-10T05:30:22;-11.00;99.90
9776;DHT22;4927;52.472;13.108;2024-01-10T05:31:24;-11.00;99.90
9776;DHT22;4927;52.472;13.108;2024-01-10T05:32:26;-11.00;99.90
9776;DHT22;4927;52.472;13.108;2024-01-10T05:33:28;-10.90;99.90
9776;DHT22;4927;52.472;13.108;2024-01-10T05:34:30;-10.90;99.90
9776;DHT22;4927;52.472;13.108;2024-01-10T05:35:33;-10.90;99.90
9776;DHT22;4927;52.472;13.108;2024-01-10T05:36:34;-10.90;99.90
9776;DHT22;4927;52.472;13.108;2024-01-10T05:37:36;-10.90;99.90
9776;DHT22;4927;52.472;13.108;2024-01-10T05:38:40;-10.90;99.90
9776;DHT22;4927;52.472;13.108;2024-01-10T05:39:43;-10.90;99.90
9776;DHT22;4927;52.472;13.108;2024-01-10T05:40:45;-10.90;99.90
9776;DHT22;4927;52.472;13.108;2024-01-10T05:41:47;-10.90;99.90
9776;DHT22;4927;52.472;13.108;2024-01-10T05:42:50;-10.90;99.90
9776;DHT22;4927;52.472;13.108;2024-01-10T05:43:52;-10.90;99.90
9776;DHT22;4927;52.472;13.108;2024-01-10T05:44:55;-10.90;99.90
9776;DHT22;4927;52.472;13.108;2024-01-10T05:45:57;-11.00;99.90
9776;DHT22;4927;52.472;13.108;2024-01-10T05:46:59;-11.00;99.90
9776;DHT22;4927;52.472;13.108;2024-01-10T05:48:01;-11.00;99.90
9776;DHT22;4927;52.472;13.108;2024-01-10T05:49:03;-11.00;99.90
9776;DHT22;4927;52.472;13.108;2024-01-10T05:50:06;-11.00;99.90
9776;DHT22;4927;52.472;13.108;2024-01-10T05:51:08;-11.00;99.90
9776;DHT22;4927;52.472;13.108;2024-01-10T05:52:11;-11.00;99.90
9776;DHT22;4927;52.472;13.108;2024-01-10T05:53:14;-11.00;99.90
9776;DHT22;4927;52.472;13.108;2024-01-10T05:54:16;-11.00;99.90
9776;DHT22;4927;52.472;13.108;2024-01-10T05:55:19;-10.90;99.90
9776;DHT22;4927;52.472;13.108;2024-01-10T05:56:20;-11.00;99.90
9776;DHT22;4927;52.472;13.108;2024-01-10T05:57:22;-10.90;99.90
9776;DHT22;4927;52.472;13.108;2024-01-10T05:58:24;-11.00;99.90
9776;DHT22;4927;52.472;13.108;2024-01-10T05:59:26;-10.90;99.90
9776;DHT22;4927;52.472;13.108;2024-01-10T06:00:29;-10.90;99.90
9776;DHT22;4927;52.472;13.108;2024-01-10T06:01:33;-10.90;99.90
9776;DHT22;4927;52.472;13.108;2024-01-10T06:02:37;-11.00;99.90
9776;DHT22;4927;52.472;13.108;2024-01-10T06:03:40;-10.90;99.90
9776;DHT22;4927;52.472;13.108;2024-01-10T06:04:42;-10.90;99.90
9776;DHT22;4927;52.472;13.108;2024-01-10T06:05:44;-10.90;99.90
9776;DHT22;4927;52.472;13.108;2024-01-10T06:06:45;-10.90;99.90
9776;DHT22;4927;52.472;13.108;2024-01-10T06:07:47;-10.90;99.90
9776;DHT22;4927;52.472;13.108;2024-01-10T06:08:50;-10.90;99.90
9776;DHT22;4927;52.472;13.108;2024-01-10T06:09:51;-10.90;99.90
9776;DHT22;4927;52.472;13.108;2024-01-10T06:10:53;-10.90;99.90
9776;DHT22;4927;52.472;13.108;2024-01-10T06:11:55;-10.90;99.90
9776;DHT22;4927;52.472;13.108;2024-01-10T06:12:57;-10.90;99.90
9776;DHT22;4927;52.472;13.108;2024-01-10T06:13:59;-10.80;99.90
9776;DHT22;4927;52.472;13.108;2024-01-10T06:15:02;-10.80;99.90
9776;DHT22;4927;52.472;13.108;2024-01-10T06:16:06;-10.80;99.90
9776;DHT22;4927;52.472;13.108;2024-01-10T06:17:07;-10.70;99.90
9776;DHT22;4927;52.472;13.108;2024-01-10T06:18:09;-10.80;99.90
9776;DHT22;4927;52.472;13.108;2024-01-10T06:19:11;-10.80;99.90
9776;DHT22;4927;52.472;13.108;2024-01-10T06:20:13;-10.80;99.90
9776;DHT22;4927;52.472;13.108;2024-01-10T06:21:15;-10.80;99.90
9776;DHT22;4927;52.472;13.108;2024-01-10T06:22:17;-10.80;99.90
9776;DHT22;4927;52.472;13.108;2024-01-10T06:23:19;-10.80;99.90
9776;DHT22;4927;52.472;13.108;2024-01-10T06:24:21;-10.80;99.90
9776;DHT22;4927;52.472;13.108;2024-01-10T06:25:24;-10.80;99.90
9776;DHT22;4927;52.472;13.108;2024-01-10T06:26:26;-10.80;99.90
9776;DHT22;4927;52.472;13.108;2024-01-10T06:27:29;-10.80;99.90
9776;DHT22;4927;52.472;13.108;2024-01-10T06:28:30;-10.80;99.90
9776;DHT22;4927;52.472;13.108;2024-01-10T06:29:32;-10.80;99.90
9776;DHT22;4927;52.472;13.108;2024-01-10T06:30:34;-10.80;99.90
9776;DHT22;4927;52.472;13.108;2024-01-10T06:31:36;-10.80;99.90
9776;DHT22;4927;52.472;13.108;2024-01-10T06:32:38;-10.80;99.90